PKNJT WAHQ-WICM
Flight info
| Callsign | PKNJT |
|---|---|
| Flight time | 0h 57m |
| Altitude | 18000 |
| Route | JOG DCT CLP DCT TM |
| Aircraft | B58T/L-SDFGRY/C |
Departure
| Time | 2026-05-08 00:31 |
|---|---|
| Airport | Adisoemarmo International Airport (WAHQ) |
Arrival
| Time | 2026-05-08 01:28 |
|---|---|
| Airport | Cibeureum Airport (WICM) |
| Time | Latitude | Longitude | Altitude | Speed | Heading |
|---|---|---|---|---|---|
| 2026-05-08 00:17 | -7.51345 | 110.75260 | 404 ft | 0 kts | 347° |
| 2026-05-08 00:22 | -7.51343 | 110.75260 | 404 ft | 0 kts | 339° |
| 2026-05-08 00:22 | -7.51335 | 110.75267 | 404 ft | 2 kts | 91° |
| 2026-05-08 00:23 | -7.51351 | 110.75274 | 404 ft | 2 kts | 174° |
| 2026-05-08 00:23 | -7.51353 | 110.75274 | 404 ft | 0 kts | 174° |
| 2026-05-08 00:24 | -7.51356 | 110.75274 | 401 ft | 2 kts | 174° |
| 2026-05-08 00:24 | -7.51400 | 110.75271 | 404 ft | 9 kts | 206° |
| 2026-05-08 00:24 | -7.51449 | 110.75214 | 404 ft | 13 kts | 248° |
| 2026-05-08 00:24 | -7.51493 | 110.75127 | 404 ft | 16 kts | 190° |
| 2026-05-08 00:25 | -7.51594 | 110.75151 | 406 ft | 12 kts | 166° |
| 2026-05-08 00:25 | -7.51623 | 110.75157 | 406 ft | 0 kts | 167° |
| 2026-05-08 00:27 | -7.51624 | 110.75157 | 406 ft | 0 kts | 167° |
| 2026-05-08 00:29 | -7.51634 | 110.75160 | 406 ft | 8 kts | 165° |
| 2026-05-08 00:29 | -7.51701 | 110.75229 | 407 ft | 19 kts | 83° |
| 2026-05-08 00:29 | -7.51671 | 110.75426 | 409 ft | 37 kts | 81° |
| 2026-05-08 00:30 | -7.51611 | 110.75709 | 408 ft | 41 kts | 79° |
| 2026-05-08 00:30 | -7.51575 | 110.75851 | 405 ft | 9 kts | 279° |
| 2026-05-08 00:30 | -7.51609 | 110.75715 | 408 ft | 47 kts | 255° |
| 2026-05-08 00:30 | -7.51738 | 110.75141 | 431 ft | 111 kts | 254° |
| 2026-05-08 00:31 | -7.51876 | 110.74303 | 699 ft | 128 kts | 257° |
| 2026-05-08 00:31 | -7.52052 | 110.73464 | 1132 ft | 123 kts | 246° |
| 2026-05-08 00:31 | -7.52737 | 110.73002 | 1383 ft | 137 kts | 174° |
| 2026-05-08 00:31 | -7.53632 | 110.73208 | 1800 ft | 127 kts | 163° |
| 2026-05-08 00:32 | -7.54059 | 110.73947 | 1903 ft | 143 kts | 97° |
| 2026-05-08 00:32 | -7.54028 | 110.74931 | 2150 ft | 136 kts | 91° |
| 2026-05-08 00:32 | -7.53894 | 110.75817 | 2601 ft | 124 kts | 81° |
| 2026-05-08 00:32 | -7.53679 | 110.76667 | 2840 ft | 122 kts | 101° |
| 2026-05-08 00:33 | -7.54210 | 110.77222 | 3002 ft | 122 kts | 162° |
| 2026-05-08 00:33 | -7.55062 | 110.77319 | 3151 ft | 124 kts | 177° |
| 2026-05-08 00:33 | -7.55920 | 110.77286 | 3299 ft | 125 kts | 187° |
| 2026-05-08 00:33 | -7.56747 | 110.76972 | 3402 ft | 126 kts | 191° |
| 2026-05-08 00:34 | -7.57581 | 110.76820 | 3653 ft | 118 kts | 186° |
| 2026-05-08 00:34 | -7.58397 | 110.76559 | 3723 ft | 130 kts | 198° |
| 2026-05-08 00:34 | -7.59190 | 110.76182 | 3929 ft | 125 kts | 208° |
| 2026-05-08 00:34 | -7.59928 | 110.75662 | 3973 ft | 136 kts | 210° |
| 2026-05-08 00:35 | -7.60725 | 110.75100 | 3942 ft | 143 kts | 211° |
| 2026-05-08 00:35 | -7.61539 | 110.74530 | 3992 ft | 140 kts | 211° |
| 2026-05-08 00:35 | -7.62331 | 110.73982 | 4090 ft | 137 kts | 210° |
| 2026-05-08 00:35 | -7.63114 | 110.73446 | 4196 ft | 136 kts | 210° |
| 2026-05-08 00:36 | -7.63892 | 110.72916 | 4312 ft | 134 kts | 210° |
| 2026-05-08 00:36 | -7.64660 | 110.72394 | 4406 ft | 132 kts | 210° |
| 2026-05-08 00:36 | -7.65425 | 110.71881 | 4506 ft | 132 kts | 210° |
| 2026-05-08 00:36 | -7.66191 | 110.71370 | 4599 ft | 132 kts | 210° |
| 2026-05-08 00:37 | -7.66959 | 110.70860 | 4689 ft | 132 kts | 209° |
| 2026-05-08 00:37 | -7.67755 | 110.70339 | 4802 ft | 140 kts | 210° |
| 2026-05-08 00:37 | -7.68541 | 110.69724 | 4901 ft | 147 kts | 216° |
| 2026-05-08 00:38 | -7.69833 | 110.68059 | 5087 ft | 157 kts | 237° |
| 2026-05-08 00:38 | -7.70290 | 110.67042 | 5189 ft | 161 kts | 242° |
| 2026-05-08 00:38 | -7.70696 | 110.65987 | 5276 ft | 163 kts | 246° |
| 2026-05-08 00:38 | -7.71036 | 110.64883 | 5380 ft | 165 kts | 250° |
| 2026-05-08 00:39 | -7.71322 | 110.63760 | 5468 ft | 166 kts | 252° |
| 2026-05-08 00:39 | -7.71598 | 110.62625 | 5565 ft | 166 kts | 252° |
| 2026-05-08 00:39 | -7.71871 | 110.61506 | 5665 ft | 166 kts | 250° |
| 2026-05-08 00:39 | -7.72189 | 110.60386 | 5765 ft | 166 kts | 250° |
| 2026-05-08 00:40 | -7.72513 | 110.59263 | 5851 ft | 167 kts | 251° |
| 2026-05-08 00:40 | -7.72806 | 110.58127 | 5948 ft | 167 kts | 251° |
| 2026-05-08 00:40 | -7.73105 | 110.56993 | 6042 ft | 167 kts | 252° |
| 2026-05-08 00:40 | -7.73403 | 110.55858 | 6146 ft | 168 kts | 251° |
| 2026-05-08 00:41 | -7.73704 | 110.54713 | 6251 ft | 169 kts | 249° |
| 2026-05-08 00:41 | -7.74023 | 110.53567 | 6346 ft | 170 kts | 253° |
| 2026-05-08 00:41 | -7.74315 | 110.52406 | 6445 ft | 172 kts | 252° |
| 2026-05-08 00:41 | -7.74621 | 110.51243 | 6535 ft | 172 kts | 251° |
| 2026-05-08 00:42 | -7.74929 | 110.50095 | 6626 ft | 172 kts | 250° |
| 2026-05-08 00:42 | -7.75256 | 110.48913 | 6722 ft | 173 kts | 250° |
| 2026-05-08 00:42 | -7.75580 | 110.47761 | 6808 ft | 173 kts | 253° |
| 2026-05-08 00:42 | -7.75881 | 110.46588 | 6901 ft | 175 kts | 253° |
| 2026-05-08 00:43 | -7.76192 | 110.45357 | 6990 ft | 185 kts | 253° |
| 2026-05-08 00:43 | -7.76522 | 110.44081 | 7087 ft | 191 kts | 253° |
| 2026-05-08 00:43 | -7.76874 | 110.42782 | 7261 ft | 192 kts | 253° |
| 2026-05-08 00:43 | -7.77229 | 110.41485 | 7454 ft | 192 kts | 252° |
| 2026-05-08 00:44 | -7.77579 | 110.40184 | 7656 ft | 192 kts | 253° |
| 2026-05-08 00:44 | -7.77924 | 110.38876 | 7841 ft | 193 kts | 253° |
| 2026-05-08 00:44 | -7.78271 | 110.37568 | 8027 ft | 193 kts | 253° |
| 2026-05-08 00:44 | -7.78610 | 110.36272 | 8213 ft | 194 kts | 253° |
| 2026-05-08 00:45 | -7.78961 | 110.34957 | 8409 ft | 194 kts | 253° |
| 2026-05-08 00:45 | -7.79314 | 110.33639 | 8598 ft | 195 kts | 254° |
| 2026-05-08 00:45 | -7.79667 | 110.32321 | 8793 ft | 195 kts | 254° |
| 2026-05-08 00:45 | -7.80014 | 110.31000 | 8986 ft | 195 kts | 254° |
| 2026-05-08 00:46 | -7.80368 | 110.29678 | 9186 ft | 196 kts | 254° |
| 2026-05-08 00:46 | -7.80725 | 110.28353 | 9395 ft | 196 kts | 254° |
| 2026-05-08 00:46 | -7.81084 | 110.27025 | 9593 ft | 197 kts | 254° |
| 2026-05-08 00:46 | -7.81447 | 110.25690 | 9792 ft | 198 kts | 254° |
| 2026-05-08 00:47 | -7.81814 | 110.24348 | 9976 ft | 199 kts | 254° |
| 2026-05-08 00:47 | -7.82187 | 110.22997 | 10153 ft | 199 kts | 253° |
| 2026-05-08 00:47 | -7.82560 | 110.21651 | 10332 ft | 200 kts | 253° |
| 2026-05-08 00:47 | -7.82937 | 110.20300 | 10515 ft | 200 kts | 253° |
| 2026-05-08 00:48 | -7.83312 | 110.18964 | 10697 ft | 200 kts | 253° |
| 2026-05-08 00:48 | -7.83694 | 110.17613 | 10874 ft | 200 kts | 252° |
| 2026-05-08 00:48 | -7.84071 | 110.16263 | 11065 ft | 200 kts | 256° |
| 2026-05-08 00:48 | -7.84150 | 110.14861 | 11254 ft | 200 kts | 269° |
| 2026-05-08 00:49 | -7.84241 | 110.13470 | 11446 ft | 199 kts | 253° |
| 2026-05-08 00:49 | -7.84475 | 110.12556 | 11577 ft | 199 kts | 257° |
| 2026-05-08 00:49 | -7.84631 | 110.11179 | 11769 ft | 201 kts | 266° |
| 2026-05-08 00:49 | -7.84625 | 110.09764 | 11959 ft | 202 kts | 271° |
| 2026-05-08 00:50 | -7.84523 | 110.08345 | 12150 ft | 203 kts | 274° |
| 2026-05-08 00:50 | -7.84371 | 110.06934 | 12345 ft | 203 kts | 277° |
| 2026-05-08 00:50 | -7.84144 | 110.05533 | 12585 ft | 202 kts | 279° |
| 2026-05-08 00:50 | -7.83875 | 110.04146 | 12834 ft | 201 kts | 280° |
| 2026-05-08 00:51 | -7.83593 | 110.02768 | 13085 ft | 200 kts | 280° |
| 2026-05-08 00:51 | -7.83320 | 110.01396 | 13334 ft | 199 kts | 279° |
| 2026-05-08 00:51 | -7.83061 | 110.00023 | 13589 ft | 199 kts | 279° |
| 2026-05-08 00:51 | -7.82806 | 109.98633 | 13749 ft | 204 kts | 279° |
| 2026-05-08 00:52 | -7.82537 | 109.97207 | 13820 ft | 211 kts | 279° |
| 2026-05-08 00:52 | -7.82247 | 109.95725 | 13858 ft | 218 kts | 280° |
| 2026-05-08 00:52 | -7.81949 | 109.94227 | 13875 ft | 223 kts | 280° |
| 2026-05-08 00:52 | -7.81647 | 109.92674 | 13886 ft | 227 kts | 279° |
| 2026-05-08 00:53 | -7.81347 | 109.91100 | 13892 ft | 230 kts | 279° |
| 2026-05-08 00:53 | -7.81045 | 109.89507 | 13895 ft | 232 kts | 279° |
| 2026-05-08 00:53 | -7.80736 | 109.87901 | 13898 ft | 234 kts | 279° |
| 2026-05-08 00:53 | -7.80421 | 109.86284 | 13897 ft | 235 kts | 279° |
| 2026-05-08 00:54 | -7.80106 | 109.84664 | 13897 ft | 236 kts | 279° |
| 2026-05-08 00:54 | -7.79797 | 109.83057 | 13900 ft | 236 kts | 279° |
| 2026-05-08 00:54 | -7.79486 | 109.81429 | 13900 ft | 237 kts | 279° |
| 2026-05-08 00:54 | -7.79172 | 109.79799 | 13903 ft | 237 kts | 279° |
| 2026-05-08 00:55 | -7.78857 | 109.78168 | 13906 ft | 237 kts | 279° |
| 2026-05-08 00:55 | -7.78539 | 109.76532 | 13903 ft | 237 kts | 279° |
| 2026-05-08 00:55 | -7.78224 | 109.74901 | 13904 ft | 237 kts | 279° |
| 2026-05-08 00:55 | -7.77912 | 109.73274 | 13908 ft | 237 kts | 279° |
| 2026-05-08 00:56 | -7.77598 | 109.71642 | 13909 ft | 237 kts | 279° |
| 2026-05-08 00:56 | -7.77283 | 109.70007 | 13904 ft | 237 kts | 279° |
| 2026-05-08 00:56 | -7.76968 | 109.68382 | 13905 ft | 237 kts | 279° |
| 2026-05-08 00:56 | -7.76652 | 109.66750 | 13905 ft | 236 kts | 279° |
| 2026-05-08 00:57 | -7.76340 | 109.65126 | 13907 ft | 236 kts | 279° |
| 2026-05-08 00:57 | -7.76026 | 109.63495 | 13910 ft | 237 kts | 279° |
| 2026-05-08 00:57 | -7.75713 | 109.61866 | 13910 ft | 237 kts | 279° |
| 2026-05-08 00:57 | -7.75397 | 109.60235 | 13911 ft | 237 kts | 279° |
| 2026-05-08 00:58 | -7.75082 | 109.58606 | 13911 ft | 237 kts | 279° |
| 2026-05-08 00:58 | -7.74766 | 109.56971 | 13910 ft | 238 kts | 279° |
| 2026-05-08 00:58 | -7.74451 | 109.55331 | 13911 ft | 238 kts | 279° |
| 2026-05-08 00:58 | -7.74136 | 109.53694 | 13910 ft | 238 kts | 279° |
| 2026-05-08 00:59 | -7.73820 | 109.52057 | 13907 ft | 238 kts | 279° |
| 2026-05-08 00:59 | -7.73508 | 109.50441 | 13904 ft | 238 kts | 279° |
| 2026-05-08 00:59 | -7.73188 | 109.48786 | 13906 ft | 237 kts | 279° |
| 2026-05-08 00:59 | -7.72878 | 109.47175 | 13917 ft | 237 kts | 279° |
| 2026-05-08 01:00 | -7.72562 | 109.45537 | 13920 ft | 237 kts | 279° |
| 2026-05-08 01:00 | -7.72246 | 109.43906 | 13920 ft | 237 kts | 279° |
| 2026-05-08 01:00 | -7.71932 | 109.42270 | 13918 ft | 238 kts | 279° |
| 2026-05-08 01:00 | -7.71618 | 109.40630 | 13920 ft | 238 kts | 279° |
| 2026-05-08 01:01 | -7.71301 | 109.38996 | 13920 ft | 238 kts | 279° |
| 2026-05-08 01:01 | -7.70984 | 109.37361 | 13919 ft | 238 kts | 279° |
| 2026-05-08 01:01 | -7.70668 | 109.35723 | 13916 ft | 237 kts | 279° |
| 2026-05-08 01:01 | -7.70353 | 109.34090 | 13915 ft | 237 kts | 279° |
| 2026-05-08 01:02 | -7.70038 | 109.32459 | 13916 ft | 237 kts | 279° |
| 2026-05-08 01:02 | -7.69724 | 109.30829 | 13917 ft | 237 kts | 279° |
| 2026-05-08 01:02 | -7.69408 | 109.29198 | 13917 ft | 237 kts | 279° |
| 2026-05-08 01:02 | -7.69097 | 109.27568 | 13917 ft | 237 kts | 279° |
| 2026-05-08 01:03 | -7.68784 | 109.25952 | 13920 ft | 238 kts | 279° |
| 2026-05-08 01:03 | -7.68465 | 109.24299 | 13919 ft | 238 kts | 279° |
| 2026-05-08 01:03 | -7.68153 | 109.22682 | 13919 ft | 237 kts | 279° |
| 2026-05-08 01:03 | -7.67836 | 109.21049 | 13919 ft | 237 kts | 279° |
| 2026-05-08 01:04 | -7.67521 | 109.19415 | 13922 ft | 238 kts | 279° |
| 2026-05-08 01:04 | -7.67205 | 109.17775 | 13922 ft | 238 kts | 279° |
| 2026-05-08 01:04 | -7.66890 | 109.16133 | 13920 ft | 238 kts | 279° |
| 2026-05-08 01:04 | -7.66575 | 109.14498 | 13919 ft | 238 kts | 279° |
| 2026-05-08 01:05 | -7.66248 | 109.12862 | 13919 ft | 238 kts | 281° |
| 2026-05-08 01:05 | -7.65890 | 109.11233 | 13927 ft | 238 kts | 281° |
| 2026-05-08 01:05 | -7.65534 | 109.09600 | 13924 ft | 238 kts | 281° |
| 2026-05-08 01:05 | -7.65179 | 109.07973 | 13928 ft | 238 kts | 281° |
| 2026-05-08 01:06 | -7.64826 | 109.06337 | 13922 ft | 238 kts | 281° |
| 2026-05-08 01:06 | -7.64473 | 109.04705 | 13920 ft | 238 kts | 281° |
| 2026-05-08 01:06 | -7.64125 | 109.03096 | 13923 ft | 238 kts | 281° |
| 2026-05-08 01:06 | -7.63723 | 109.01476 | 13920 ft | 239 kts | 290° |
| 2026-05-08 01:07 | -7.63017 | 108.99934 | 13926 ft | 239 kts | 293° |
| 2026-05-08 01:07 | -7.62369 | 108.98407 | 13924 ft | 240 kts | 290° |
| 2026-05-08 01:07 | -7.61759 | 108.96842 | 13924 ft | 240 kts | 290° |
| 2026-05-08 01:07 | -7.61148 | 108.95275 | 13933 ft | 240 kts | 290° |
| 2026-05-08 01:08 | -7.60520 | 108.93715 | 13931 ft | 240 kts | 291° |
| 2026-05-08 01:08 | -7.59890 | 108.92165 | 13932 ft | 239 kts | 291° |
| 2026-05-08 01:08 | -7.59261 | 108.90610 | 13934 ft | 239 kts | 291° |
| 2026-05-08 01:08 | -7.58638 | 108.89054 | 13933 ft | 239 kts | 291° |
| 2026-05-08 01:09 | -7.58020 | 108.87502 | 13931 ft | 239 kts | 291° |
| 2026-05-08 01:09 | -7.57398 | 108.85951 | 13932 ft | 239 kts | 291° |
| 2026-05-08 01:09 | -7.56775 | 108.84397 | 13934 ft | 239 kts | 291° |
| 2026-05-08 01:09 | -7.56161 | 108.82870 | 13934 ft | 239 kts | 291° |
| 2026-05-08 01:10 | -7.55536 | 108.81314 | 13935 ft | 239 kts | 291° |
| 2026-05-08 01:10 | -7.54914 | 108.79765 | 13932 ft | 239 kts | 291° |
| 2026-05-08 01:10 | -7.54290 | 108.78209 | 13932 ft | 239 kts | 291° |
| 2026-05-08 01:10 | -7.53666 | 108.76654 | 13932 ft | 239 kts | 291° |
| 2026-05-08 01:11 | -7.53040 | 108.75095 | 13934 ft | 240 kts | 291° |
| 2026-05-08 01:11 | -7.52417 | 108.73542 | 13936 ft | 240 kts | 291° |
| 2026-05-08 01:11 | -7.51792 | 108.71983 | 13934 ft | 240 kts | 291° |
| 2026-05-08 01:11 | -7.51165 | 108.70423 | 13939 ft | 240 kts | 291° |
| 2026-05-08 01:12 | -7.50537 | 108.68863 | 13935 ft | 240 kts | 291° |
| 2026-05-08 01:12 | -7.49909 | 108.67300 | 13934 ft | 241 kts | 291° |
| 2026-05-08 01:12 | -7.49280 | 108.65733 | 13934 ft | 241 kts | 291° |
| 2026-05-08 01:12 | -7.48659 | 108.64189 | 13930 ft | 242 kts | 291° |
| 2026-05-08 01:13 | -7.48022 | 108.62605 | 13763 ft | 245 kts | 291° |
| 2026-05-08 01:13 | -7.47384 | 108.61020 | 13553 ft | 242 kts | 291° |
| 2026-05-08 01:13 | -7.46753 | 108.59453 | 13349 ft | 240 kts | 291° |
| 2026-05-08 01:13 | -7.46127 | 108.57900 | 13147 ft | 238 kts | 291° |
| 2026-05-08 01:14 | -7.45512 | 108.56376 | 12954 ft | 232 kts | 291° |
| 2026-05-08 01:14 | -7.44908 | 108.54879 | 12765 ft | 228 kts | 291° |
| 2026-05-08 01:14 | -7.44313 | 108.53406 | 12566 ft | 225 kts | 291° |
| 2026-05-08 01:14 | -7.43726 | 108.51953 | 12370 ft | 223 kts | 291° |
| 2026-05-08 01:15 | -7.43140 | 108.50504 | 12173 ft | 222 kts | 291° |
| 2026-05-08 01:15 | -7.42561 | 108.49067 | 11979 ft | 221 kts | 291° |
| 2026-05-08 01:15 | -7.41984 | 108.47634 | 11786 ft | 220 kts | 291° |
| 2026-05-08 01:15 | -7.41407 | 108.46203 | 11600 ft | 220 kts | 291° |
| 2026-05-08 01:16 | -7.40833 | 108.44775 | 11403 ft | 219 kts | 291° |
| 2026-05-08 01:16 | -7.40264 | 108.43359 | 11222 ft | 218 kts | 291° |
| 2026-05-08 01:16 | -7.39694 | 108.41939 | 11030 ft | 218 kts | 291° |
| 2026-05-08 01:16 | -7.39126 | 108.40523 | 10845 ft | 218 kts | 291° |
| 2026-05-08 01:17 | -7.38559 | 108.39108 | 10660 ft | 218 kts | 291° |
| 2026-05-08 01:17 | -7.37995 | 108.37697 | 10475 ft | 217 kts | 291° |
| 2026-05-08 01:17 | -7.37439 | 108.36306 | 10288 ft | 216 kts | 291° |
| 2026-05-08 01:17 | -7.36880 | 108.34905 | 10113 ft | 215 kts | 291° |
| 2026-05-08 01:18 | -7.36323 | 108.33507 | 9926 ft | 214 kts | 291° |
| 2026-05-08 01:18 | -7.35771 | 108.32122 | 9737 ft | 213 kts | 291° |
| 2026-05-08 01:18 | -7.35218 | 108.30735 | 9538 ft | 213 kts | 291° |
| 2026-05-08 01:18 | -7.34668 | 108.29355 | 9341 ft | 212 kts | 291° |
| 2026-05-08 01:19 | -7.34119 | 108.27987 | 9137 ft | 210 kts | 291° |
| 2026-05-08 01:19 | -7.33573 | 108.26628 | 8939 ft | 209 kts | 291° |
| 2026-05-08 01:19 | -7.33029 | 108.25268 | 8740 ft | 209 kts | 290° |
| 2026-05-08 01:19 | -7.32488 | 108.23907 | 8540 ft | 209 kts | 290° |
| 2026-05-08 01:20 | -7.31944 | 108.22547 | 8351 ft | 209 kts | 291° |
| 2026-05-08 01:20 | -7.31402 | 108.21195 | 8156 ft | 207 kts | 291° |
| 2026-05-08 01:20 | -7.30858 | 108.19843 | 7966 ft | 208 kts | 290° |
| 2026-05-08 01:20 | -7.30318 | 108.18487 | 7770 ft | 209 kts | 289° |
| 2026-05-08 01:21 | -7.29768 | 108.17124 | 7582 ft | 210 kts | 290° |
| 2026-05-08 01:21 | -7.29285 | 108.15766 | 7412 ft | 195 kts | 277° |
| 2026-05-08 01:21 | -7.29485 | 108.14547 | 7212 ft | 171 kts | 234° |
| 2026-05-08 01:21 | -7.30156 | 108.13616 | 7018 ft | 160 kts | 225° |
| 2026-05-08 01:22 | -7.30836 | 108.12738 | 6708 ft | 157 kts | 224° |
| 2026-05-08 01:22 | -7.31517 | 108.11893 | 6410 ft | 154 kts | 224° |
| 2026-05-08 01:22 | -7.32199 | 108.11066 | 6093 ft | 153 kts | 223° |
| 2026-05-08 01:22 | -7.32889 | 108.10245 | 5728 ft | 154 kts | 225° |
| 2026-05-08 01:23 | -7.33665 | 108.09544 | 5360 ft | 145 kts | 193° |
| 2026-05-08 01:23 | -7.34584 | 108.09665 | 5008 ft | 136 kts | 140° |
| 2026-05-08 01:23 | -7.34952 | 108.10518 | 4639 ft | 140 kts | 99° |
| 2026-05-08 01:23 | -7.34966 | 108.11505 | 4262 ft | 143 kts | 87° |
| 2026-05-08 01:24 | -7.34493 | 108.12451 | 3908 ft | 159 kts | 60° |
| 2026-05-08 01:24 | -7.33847 | 108.13388 | 3586 ft | 166 kts | 57° |
| 2026-05-08 01:24 | -7.33174 | 108.14336 | 3302 ft | 164 kts | 56° |
| 2026-05-08 01:24 | -7.32515 | 108.15246 | 3159 ft | 156 kts | 55° |
| 2026-05-08 01:25 | -7.31887 | 108.16100 | 3082 ft | 147 kts | 55° |
| 2026-05-08 01:25 | -7.31281 | 108.16936 | 3058 ft | 151 kts | 56° |
| 2026-05-08 01:25 | -7.30652 | 108.17799 | 3056 ft | 154 kts | 56° |
| 2026-05-08 01:25 | -7.30010 | 108.18676 | 3055 ft | 157 kts | 56° |
| 2026-05-08 01:26 | -7.29381 | 108.19572 | 3087 ft | 153 kts | 64° |
| 2026-05-08 01:26 | -7.29162 | 108.20577 | 3034 ft | 147 kts | 97° |
| 2026-05-08 01:26 | -7.29552 | 108.21510 | 2906 ft | 146 kts | 134° |
| 2026-05-08 01:26 | -7.30432 | 108.22043 | 2551 ft | 147 kts | 161° |
| 2026-05-08 01:27 | -7.31294 | 108.22402 | 2185 ft | 122 kts | 148° |
| 2026-05-08 01:27 | -7.31982 | 108.22896 | 1898 ft | 123 kts | 142° |
| 2026-05-08 01:27 | -7.32681 | 108.23381 | 1634 ft | 123 kts | 147° |
| 2026-05-08 01:27 | -7.33398 | 108.23812 | 1327 ft | 114 kts | 149° |
| 2026-05-08 01:28 | -7.34068 | 108.24235 | 1107 ft | 112 kts | 148° |
| 2026-05-08 01:28 | -7.34621 | 108.24588 | 1056 ft | 68 kts | 148° |
| 2026-05-08 01:28 | -7.34806 | 108.24686 | 1061 ft | 8 kts | 251° |
| 2026-05-08 01:28 | -7.34825 | 108.24632 | 1061 ft | 10 kts | 241° |
| 2026-05-08 01:29 | -7.34867 | 108.24637 | 1058 ft | 9 kts | 140° |
| 2026-05-08 01:29 | -7.34901 | 108.24627 | 1059 ft | 0 kts | 242° |
| 2026-05-08 01:29 | -7.34139 | 108.24281 | 1083 ft | 110 kts | 147° |
| 2026-05-08 01:30 | -7.34570 | 108.24556 | 1055 ft | 80 kts | 148° |
| 2026-05-08 01:30 | -7.34527 | 108.24529 | 1054 ft | 84 kts | 148° |
| 2026-05-08 01:30 | -7.34446 | 108.24477 | 1054 ft | 90 kts | 147° |
| 2026-05-08 01:32 | -7.34900 | 108.24629 | 1059 ft | 6 kts | 241° |
| 2026-05-08 01:32 | -7.34901 | 108.24627 | 1059 ft | 0 kts | 242° |
| 2026-05-08 01:33 | -7.34901 | 108.24628 | 1059 ft | 0 kts | 242° |